Time;durP1;ratioP1;P1;durP2;ratioP2;P2;SDS_P1;SDS_P2;PMS_P1;PMS_P2;Temp;Humidity;BMP_temperature;BMP_pressure;BME280_temperature;BME280_humidity;BME280_pressure;Samples;Min_cycle;Max_cycle;Signal;HPM_P1;HPM_P2
2022/03/27 00:01:06;;;;;;;;;33.33;28.33;;;;;16.19;35.13;101938.75;5032404;28;45373;-65
2022/03/27 00:03:32;;;;;;;;;28.00;26.67;;;;;16.18;35.44;101937.03;5025901;28;45518;-66
2022/03/27 00:05:58;;;;;;;;;36.33;30.33;;;;;16.16;35.94;101931.75;5025050;28;45678;-66
2022/03/27 00:08:24;;;;;;;;;37.00;30.33;;;;;16.09;35.04;101930.25;5023057;28;45444;-66
2022/03/27 00:13:33;;;;;;;;;36.00;31.33;;;;;16.09;34.87;101928.47;5025066;28;45487;-64
2022/03/27 00:15:59;;;;;;;;;37.00;32.00;;;;;16.12;35.55;101940.78;5037240;28;45429;-65
2022/03/27 00:18:24;;;;;;;;;39.00;31.00;;;;;16.08;35.30;101932.03;5029566;28;45607;-63
2022/03/27 00:20:51;;;;;;;;;42.67;31.33;;;;;16.07;35.02;101938.28;5031484;28;46066;-65
2022/03/27 00:23:16;;;;;;;;;42.00;33.00;;;;;16.03;35.60;101931.34;5031491;28;45470;-66
2022/03/27 00:25:43;;;;;;;;;36.00;31.33;;;;;16.06;35.95;101941.84;5021332;28;45469;-65
2022/03/27 00:28:08;;;;;;;;;37.00;32.00;;;;;16.03;35.86;101933.13;5037186;28;45355;-65
2022/03/27 00:30:34;;;;;;;;;37.33;30.67;;;;;16.03;35.66;101933.13;5025531;28;46421;-67
2022/03/27 00:32:59;;;;;;;;;32.67;29.67;;;;;16.00;35.15;101931.47;5037216;28;45434;-63
2022/03/27 00:35:25;;;;;;;;;38.33;30.67;;;;;16.01;34.91;101927.00;5033755;28;45538;-65
2022/03/27 00:37:52;;;;;;;;;35.33;31.67;;;;;15.99;35.03;101923.56;5022765;28;45643;-67
2022/03/27 00:40:18;;;;;;;;;38.00;33.67;;;;;15.96;35.04;101940.47;5034972;28;46869;-65
2022/03/27 00:42:43;;;;;;;;;35.00;31.00;;;;;15.92;35.22;101933.53;5020568;28;45593;-65
2022/03/27 00:45:09;;;;;;;;;39.67;34.00;;;;;15.91;35.02;101937.13;5036751;28;45489;-66
2022/03/27 00:47:34;;;;;;;;;35.67;33.67;;;;;15.85;35.36;101930.25;5035619;28;45422;-65
2022/03/27 00:50:00;;;;;;;;;34.00;31.00;;;;;15.84;35.92;101930.28;5028821;28;45409;-66
2022/03/27 00:52:25;;;;;;;;;35.67;31.00;;;;;15.89;35.19;101936.28;5017961;28;45553;-63
2022/03/27 00:54:50;;;;;;;;;27.33;22.67;;;;;15.86;36.60;101936.41;5016755;28;45426;-64
2022/03/27 00:57:15;;;;;;;;;33.67;32.67;;;;;15.83;35.78;101926.78;5034866;28;45486;-65
2022/03/27 00:59:41;;;;;;;;;38.67;33.33;;;;;15.86;35.70;101929.31;5036280;28;46215;-66
2022/03/27 01:02:06;;;;;;;;;43.67;34.00;;;;;15.84;36.29;101920.53;5034454;28;49449;-66
2022/03/27 01:04:31;;;;;;;;;34.33;31.00;;;;;15.89;35.99;101923.03;5035944;28;45489;-64
2022/03/27 01:06:57;;;;;;;;;34.33;32.00;;;;;15.73;36.07;101904.16;5028467;28;45338;-64
2022/03/27 01:09:35;;;;;;;;;32.00;27.00;;;;;15.82;36.42;101917.06;5032307;28;46211;-66
2022/03/27 01:12:22;;;;;;;;;42.67;32.00;;;;;15.85;36.08;101918.75;5034975;28;45446;-66
2022/03/27 01:14:49;;;;;;;;;35.33;31.00;;;;;15.84;36.29;101919.66;5033889;28;45454;-65
2022/03/27 01:17:17;;;;;;;;;37.67;33.67;;;;;15.82;36.00;101922.38;5036522;28;45448;-65
2022/03/27 01:19:48;;;;;;;;;40.25;35.00;;;;;15.82;36.16;101921.50;5031302;28;46301;-65
2022/03/27 01:22:14;;;;;;;;;32.00;30.33;;;;;15.79;36.92;101917.19;5034101;28;45536;-64
2022/03/27 01:24:40;;;;;;;;;40.33;34.00;;;;;15.79;35.78;101917.19;5019639;28;45547;-65
2022/03/27 01:27:06;;;;;;;;;37.25;32.50;;;;;15.79;36.47;101916.31;5031486;28;45442;-66
2022/03/27 01:29:32;;;;;;;;;45.75;37.00;;;;;15.76;37.06;101912.00;5018280;28;46222;-65
2022/03/27 01:31:57;;;;;;;;;37.33;31.67;;;;;15.75;35.87;101912.06;5015885;28;45443;-64
2022/03/27 01:34:23;;;;;;;;;41.67;32.33;;;;;15.73;36.11;101919.19;5029768;28;45498;-64
2022/03/27 01:36:49;;;;;;;;;33.50;26.75;;;;;15.68;36.59;101909.59;5034308;28;45549;-66
2022/03/27 01:39:16;;;;;;;;;37.33;32.00;;;;;15.65;36.99;101899.06;5034645;28;48167;-65
2022/03/27 01:41:42;;;;;;;;;41.50;33.75;;;;;15.68;37.04;101906.06;5017956;28;45460;-66
2022/03/27 01:44:13;;;;;;;;;40.50;33.50;;;;;15.66;36.46;101898.19;5023285;28;45372;-64
2022/03/27 01:46:40;;;;;;;;;36.67;32.33;;;;;15.67;37.37;101901.69;5020979;28;45418;-65
2022/03/27 01:49:09;;;;;;;;;40.33;34.00;;;;;15.64;37.32;101886.75;5042612;28;46613;-64
2022/03/27 01:51:36;;;;;;;;;36.67;32.67;;;;;15.67;36.92;101886.63;5034321;28;45427;-66
2022/03/27 01:54:05;;;;;;;;;38.75;33.50;;;;;15.65;37.30;101888.47;5035956;28;45451;-65
2022/03/27 01:56:32;;;;;;;;;40.67;34.00;;;;;15.62;37.56;101883.28;5035898;28;45531;-64
2022/03/27 01:58:58;;;;;;;;;40.33;37.00;;;;;15.65;37.00;101891.13;5027342;28;45519;-64
2022/03/27 02:01:23;;;;;;;;;33.67;32.00;;;;;15.60;37.75;101882.47;5025501;28;45435;-65
2022/03/27 02:03:50;;;;;;;;;38.00;32.67;;;;;15.63;37.74;101886.78;5017745;28;45467;-66
2022/03/27 02:06:16;;;;;;;;;42.00;36.00;;;;;15.62;36.98;101887.72;5026255;28;45466;-62
2022/03/27 02:08:44;;;;;;;;;34.50;33.25;;;;;15.59;37.55;101888.69;5032468;28;46309;-64
2022/03/27 02:11:10;;;;;;;;;37.33;32.33;;;;;15.57;37.05;101881.72;5022956;28;45371;-64
2022/03/27 02:13:37;;;;;;;;;38.33;33.67;;;;;15.56;37.58;101882.66;5035201;28;45403;-64
2022/03/27 02:16:03;;;;;;;;;38.33;33.33;;;;;15.55;38.00;101886.19;5025556;28;45463;-67
2022/03/27 02:18:30;;;;;;;;;35.25;32.25;;;;;15.54;37.30;101884.47;5019602;28;46922;-65
2022/03/27 02:20:57;;;;;;;;;39.33;33.67;;;;;15.53;38.21;101886.28;5035238;28;45415;-67
2022/03/27 02:23:23;;;;;;;;;38.00;34.67;;;;;15.53;38.31;101888.94;5035410;28;45434;-65
2022/03/27 02:25:49;;;;;;;;;33.33;31.33;;;;;15.50;38.38;101889.03;5030328;28;45386;-64
2022/03/27 02:28:15;;;;;;;;;40.00;33.33;;;;;15.48;38.49;101892.66;5034678;28;45464;-64
2022/03/27 02:30:41;;;;;;;;;39.00;34.33;;;;;15.45;38.17;101896.28;5025251;28;45761;-63
2022/03/27 02:33:07;;;;;;;;;37.00;32.33;;;;;15.45;37.82;101893.63;5015422;28;45426;-65
2022/03/27 02:35:33;;;;;;;;;31.67;30.33;;;;;15.43;38.39;101895.47;5015423;28;45473;-65
2022/03/27 02:37:59;;;;;;;;;37.67;34.00;;;;;15.42;38.25;101897.25;5017665;28;45480;-66
2022/03/27 02:40:24;;;;;;;;;34.67;33.67;;;;;15.40;38.54;101891.13;5025568;28;45565;-65
2022/03/27 02:42:49;;;;;;;;;33.67;30.00;;;;;15.34;37.94;101882.50;5015338;28;45481;-67
2022/03/27 02:45:15;;;;;;;;;36.67;31.67;;;;;15.36;37.65;101885.97;5038448;28;45367;-65
2022/03/27 02:47:41;;;;;;;;;41.33;33.00;;;;;15.35;38.09;101893.06;5038541;28;46031;-64
2022/03/27 02:50:07;;;;;;;;;35.67;32.00;;;;;15.32;38.37;101890.53;5031372;28;45541;-65
2022/03/27 02:52:33;;;;;;;;;34.67;33.67;;;;;15.31;38.69;101883.47;5041167;28;45435;-66
2022/03/27 02:54:58;;;;;;;;;32.67;31.00;;;;;15.29;38.51;101888.00;5019081;28;45440;-63
2022/03/27 02:57:24;;;;;;;;;35.00;33.25;;;;;15.24;38.42;101882.84;5034149;28;45438;-65
2022/03/27 02:59:53;;;;;;;;;39.25;33.25;;;;;15.27;38.27;101889.81;5038250;28;45365;-65
2022/03/27 03:02:21;;;;;;;;;37.67;32.00;;;;;15.22;38.49;101881.16;5038362;28;45565;-63
2022/03/27 03:04:47;;;;;;;;;33.33;29.00;;;;;15.23;38.34;101889.06;5037559;28;45473;-68
2022/03/27 03:07:14;;;;;;;;;46.00;34.33;;;;;15.14;38.97;101880.56;5038401;28;45988;-66
2022/03/27 03:09:40;;;;;;;;;48.00;35.00;;;;;15.19;38.49;101887.44;5038303;28;45527;-65
2022/03/27 03:12:06;;;;;;;;;39.75;34.75;;;;;15.17;38.51;101885.75;5021690;28;45506;-64
2022/03/27 03:14:33;;;;;;;;;46.00;34.00;;;;;15.16;38.68;101898.13;5019155;28;45399;-65
2022/03/27 03:16:59;;;;;;;;;36.25;34.00;;;;;15.15;39.67;101895.53;5029387;28;45466;-65
2022/03/27 03:19:25;;;;;;;;;37.00;34.50;;;;;15.09;39.04;101883.34;5020430;28;45493;-67
2022/03/27 03:21:50;;;;;;;;;37.00;30.00;;;;;15.12;39.08;101891.19;5018432;28;45356;-66
2022/03/27 03:24:16;;;;;;;;;35.50;32.00;;;;;15.13;39.61;101890.28;5031876;28;45422;-65
2022/03/27 03:26:41;;;;;;;;;32.75;32.00;;;;;15.14;39.38;101885.84;5036509;28;45551;-65
2022/03/27 03:29:07;;;;;;;;;9.00;7.25;;;;;15.07;39.50;101879.91;5037799;28;45428;-65
2022/03/27 03:31:32;;;;;;;;;38.75;33.00;;;;;15.10;39.49;101895.69;5036000;28;45500;-66
2022/03/27 03:33:58;;;;;;;;;32.67;32.00;;;;;15.07;39.58;101892.25;5027049;28;45534;-66
2022/03/27 03:36:23;;;;;;;;;43.75;33.50;;;;;15.01;39.59;101886.25;5016610;28;46228;-64
2022/03/27 03:38:48;;;;;;;;;29.00;29.00;;;;;15.05;40.04;101895.00;5018237;28;45414;-64
2022/03/27 03:41:14;;;;;;;;;36.67;33.33;;;;;15.04;39.80;101890.59;5018001;28;45209;-65
2022/03/27 03:43:39;;;;;;;;;34.00;29.67;;;;;15.02;39.73;101890.66;5019069;28;45483;-64
2022/03/27 03:46:05;;;;;;;;;34.67;31.67;;;;;14.98;40.04;101886.34;5017652;28;46125;-65
2022/03/27 03:48:30;;;;;;;;;39.33;32.67;;;;;14.96;39.64;101885.56;5022859;28;45347;-65
2022/03/27 03:50:56;;;;;;;;;31.00;30.33;;;;;14.97;39.83;101886.44;5025179;28;45525;-66
2022/03/27 03:53:22;;;;;;;;;31.00;29.67;;;;;14.97;40.47;101889.06;5017828;28;45669;-64
2022/03/27 03:55:48;;;;;;;;;34.25;32.50;;;;;14.97;40.15;101900.53;5017694;28;45485;-63
2022/03/27 03:58:13;;;;;;;;;32.00;31.33;;;;;14.98;39.69;101893.44;5021691;28;45748;-64
2022/03/27 04:00:39;;;;;;;;;34.67;31.33;;;;;14.95;40.14;101890.91;5017640;28;45399;-65
2022/03/27 04:03:07;;;;;;;;;32.00;29.33;;;;;14.95;40.14;101890.91;5017344;28;45623;-66
2022/03/27 04:05:32;;;;;;;;;32.33;30.33;;;;;14.94;40.25;101892.69;5030910;28;47132;-65
2022/03/27 04:07:57;;;;;;;;;29.33;27.33;;;;;14.95;39.74;101893.56;5017413;28;45427;-63
2022/03/27 04:10:23;;;;;;;;;33.33;28.33;;;;;14.94;39.91;101887.41;5037076;28;45472;-64
2022/03/27 04:12:48;;;;;;;;;31.33;31.00;;;;;14.95;40.09;101896.19;5018222;28;45549;-66
2022/03/27 04:15:13;;;;;;;;;30.00;27.33;;;;;14.93;40.15;101893.59;5030428;28;46279;-66
2022/03/27 04:17:46;;;;;;;;;33.00;30.00;;;;;14.92;40.30;101893.66;5036265;28;45467;-65
2022/03/27 04:20:15;;;;;;;;;34.67;32.33;;;;;14.90;40.39;101898.13;5021871;28;45522;-65
2022/03/27 04:22:42;;;;;;;;;30.67;29.33;;;;;14.89;40.52;101899.91;5032833;28;45465;-64
2022/03/27 04:25:08;;;;;;;;;36.33;31.33;;;;;14.83;40.46;101892.19;5036853;28;45428;-65
2022/03/27 04:27:34;;;;;;;;;32.67;32.00;;;;;14.86;39.87;101897.38;5036041;28;45476;-65
2022/03/27 04:30:00;;;;;;;;;45.67;35.00;;;;;14.88;40.32;101900.81;5036097;28;45485;-66
2022/03/27 04:32:26;;;;;;;;;28.67;26.00;;;;;14.89;40.02;101901.72;5036546;28;45451;-65
2022/03/27 04:34:51;;;;;;;;;36.33;33.00;;;;;14.86;40.66;101901.81;5035438;28;46397;-65
2022/03/27 04:37:17;;;;;;;;;33.67;32.00;;;;;14.88;40.19;101903.47;5035075;28;45382;-65
2022/03/27 04:39:43;;;;;;;;;33.25;31.25;;;;;14.90;40.51;101906.06;5035325;28;45438;-65
2022/03/27 04:42:11;;;;;;;;;33.67;32.00;;;;;14.89;40.00;101907.00;5020421;28;45665;-67
2022/03/27 04:44:36;;;;;;;;;33.00;32.00;;;;;14.86;40.12;101905.31;5017116;28;46550;-64
2022/03/27 04:47:02;;;;;;;;;32.00;31.00;;;;;14.80;40.14;101897.53;5017822;28;45493;-66
2022/03/27 04:49:27;;;;;;;;;31.00;27.67;;;;;14.84;40.40;101911.59;5032782;28;45444;-66
2022/03/27 04:51:53;;;;;;;;;33.33;29.00;;;;;14.83;40.36;101907.19;5036665;28;45398;-64
2022/03/27 04:54:18;;;;;;;;;31.67;31.67;;;;;14.81;40.62;101912.53;5036268;28;45407;-66
2022/03/27 04:56:44;;;;;;;;;36.00;32.00;;;;;14.76;40.71;101904.75;5036676;28;45453;-64
2022/03/27 04:59:10;;;;;;;;;29.00;26.00;;;;;14.77;41.10;101908.25;5026155;28;45463;-62
2022/03/27 05:01:36;;;;;;;;;29.00;25.33;;;;;14.74;40.81;101905.69;5034383;28;45493;-65
2022/03/27 05:04:02;;;;;;;;;38.33;32.67;;;;;14.72;41.18;101903.13;5035872;28;45896;-64
2022/03/27 05:06:29;;;;;;;;;20.67;20.67;;;;;14.71;41.01;101909.31;5034134;28;45566;-66
2022/03/27 05:08:58;;;;;;;;;33.67;30.00;;;;;14.68;40.40;101911.19;5036830;28;45433;-66
2022/03/27 05:11:24;;;;;;;;;28.33;27.67;;;;;14.65;40.60;101906.00;5036512;28;45582;-65
2022/03/27 05:13:50;;;;;;;;;34.00;30.33;;;;;14.70;41.11;101918.19;5028128;28;45929;-66
2022/03/27 05:16:15;;;;;;;;;29.67;27.67;;;;;14.69;40.91;101924.38;5016316;28;46231;-63
2022/03/27 05:18:40;;;;;;;;;32.00;27.67;;;;;14.68;40.91;101919.16;5028892;28;45411;-64
2022/03/27 05:21:06;;;;;;;;;29.00;26.67;;;;;14.68;40.86;101921.78;5036582;28;45454;-62
2022/03/27 05:23:31;;;;;;;;;27.33;26.67;;;;;14.66;40.68;101921.81;5017870;28;46104;-67
2022/03/27 05:25:56;;;;;;;;;24.00;20.67;;;;;14.68;40.99;101940.31;5016415;28;47066;-65
2022/03/27 05:28:22;;;;;;;;;29.33;28.00;;;;;14.61;40.80;101921.09;5016443;28;45371;-64
2022/03/27 05:30:47;;;;;;;;;31.00;28.00;;;;;14.67;40.99;101928.88;5016694;28;45420;-63
2022/03/27 05:33:13;;;;;;;;;26.67;23.33;;;;;14.67;40.81;101920.94;5018149;28;45907;-63
2022/03/27 05:35:40;;;;;;;;;30.00;27.67;;;;;14.68;41.14;101927.94;5019026;28;45414;-63
2022/03/27 05:38:05;;;;;;;;;28.67;27.67;;;;;14.67;41.01;101927.97;5035647;28;45430;-65
2022/03/27 05:40:31;;;;;;;;;25.00;23.33;;;;;14.68;41.31;101933.25;5036011;28;45326;-64
2022/03/27 05:42:56;;;;;;;;;32.67;26.67;;;;;14.64;40.47;101922.78;5035006;28;45901;-65
2022/03/27 05:45:23;;;;;;;;;26.67;25.67;;;;;14.64;41.31;101925.44;5035460;28;45503;-66
2022/03/27 05:47:49;;;;;;;;;30.00;28.00;;;;;14.67;41.33;101933.28;5016415;28;45461;-66
2022/03/27 05:50:16;;;;;;;;;29.33;24.33;;;;;14.63;40.81;101921.06;5029514;28;45533;-65
2022/03/27 05:52:42;;;;;;;;;30.67;29.67;;;;;14.66;40.90;101927.13;5027217;28;45553;-64
2022/03/27 05:55:08;;;;;;;;;33.00;29.67;;;;;14.65;40.94;101932.47;5035873;28;45546;-64
2022/03/27 05:57:33;;;;;;;;;27.67;27.00;;;;;14.64;40.93;101928.09;5021645;28;45610;-65
2022/03/27 05:59:59;;;;;;;;;27.67;25.00;;;;;14.64;40.97;101936.03;5015627;28;45448;-66
2022/03/27 06:02:25;;;;;;;;;27.00;25.00;;;;;14.64;41.61;101931.63;5017974;28;45455;-65
2022/03/27 06:04:51;;;;;;;;;33.00;28.33;;;;;14.65;41.23;101935.13;5017707;28;45427;-65
2022/03/27 06:07:16;;;;;;;;;28.33;25.00;;;;;14.61;40.83;101936.97;5028820;28;45422;-65
2022/03/27 06:09:42;;;;;;;;;30.67;30.67;;;;;14.64;40.80;101941.31;5035930;28;45617;-66
2022/03/27 06:12:08;;;;;;;;;30.67;28.67;;;;;14.63;40.93;101944.91;5016406;28;46328;-66
2022/03/27 06:14:33;;;;;;;;;30.33;28.00;;;;;14.62;40.92;101944.03;5021528;28;45438;-65
2022/03/27 06:16:59;;;;;;;;;29.67;25.67;;;;;14.61;41.65;101949.38;5029783;28;45436;-65
2022/03/27 06:19:26;;;;;;;;;25.00;23.00;;;;;14.60;40.88;101952.94;5035217;28;45508;-64
2022/03/27 06:21:52;;;;;;;;;23.33;21.33;;;;;14.60;41.63;101951.16;5027141;28;46145;-65
2022/03/27 06:24:18;;;;;;;;;28.67;28.00;;;;;14.61;40.98;101952.00;5015293;28;45535;-65
2022/03/27 06:26:43;;;;;;;;;29.33;27.00;;;;;14.61;41.51;101949.38;5015468;28;45482;-66
2022/03/27 06:29:09;;;;;;;;;27.00;25.67;;;;;14.60;41.77;101945.84;5030857;28;45375;-63
2022/03/27 06:31:38;;;;;;;;;25.33;22.67;;;;;14.61;41.08;101952.00;5026996;28;46045;-64
2022/03/27 06:34:05;;;;;;;;;29.00;27.00;;;;;14.58;41.23;101953.81;5034919;28;45478;-65
2022/03/27 06:36:31;;;;;;;;;38.67;32.00;;;;;14.59;41.23;101954.72;5035249;28;45449;-65
2022/03/27 06:38:56;;;;;;;;;28.67;27.00;;;;;14.54;41.72;101943.41;5034945;28;45555;-67
2022/03/27 06:41:22;;;;;;;;;32.33;27.67;;;;;14.54;41.80;101954.00;5030936;28;45556;-65
2022/03/27 06:43:47;;;;;;;;;33.00;28.00;;;;;14.56;41.87;101958.34;5035008;28;45505;-63
2022/03/27 06:46:16;;;;;;;;;31.67;27.33;;;;;14.55;41.55;101956.56;5029762;28;45465;-67
2022/03/27 06:48:45;;;;;;;;;28.00;27.67;;;;;14.54;41.46;101960.16;5022463;28;45438;-66
2022/03/27 06:51:10;;;;;;;;;31.00;27.33;;;;;14.50;41.58;101947.88;5022848;28;46216;-62
2022/03/27 06:53:36;;;;;;;;;30.67;30.00;;;;;14.54;41.61;101959.28;5013794;28;45506;-62
2022/03/27 06:56:02;;;;;;;;;35.75;32.25;;;;;14.49;41.42;101946.16;5015602;28;45358;-62
2022/03/27 06:58:27;;;;;;;;;31.67;29.67;;;;;14.54;41.41;101954.00;5030290;28;45498;-63
2022/03/27 07:03:37;;;;;;;;;33.00;28.67;;;;;14.60;41.62;101964.38;5018000;28;45581;-66
2022/03/27 07:06:02;;;;;;;;;30.33;28.00;;;;;14.61;41.93;101963.47;5023046;28;45391;-65
2022/03/27 07:08:27;;;;;;;;;29.33;25.33;;;;;14.60;41.39;101959.09;5025124;28;45691;-66
2022/03/27 07:10:53;;;;;;;;;28.00;26.67;;;;;14.57;41.45;101948.59;5034366;28;46359;-66
2022/03/27 07:13:19;;;;;;;;;30.67;27.33;;;;;14.60;41.57;101951.16;5022019;28;45454;-65
2022/03/27 07:15:46;;;;;;;;;32.00;28.00;;;;;14.60;41.62;101955.59;5025335;28;45676;-65
2022/03/27 07:18:12;;;;;;;;;25.33;25.33;;;;;14.57;41.57;101962.69;5031102;28;45737;-65
2022/03/27 07:20:44;;;;;;;;;30.00;27.67;;;;;14.44;41.83;101942.75;5016752;28;45512;-65
2022/03/27 07:23:12;;;;;;;;;32.00;28.33;;;;;14.52;41.00;101953.13;5015933;28;45523;-65
2022/03/27 07:25:40;;;;;;;;;31.67;29.33;;;;;14.54;41.97;101960.16;5017515;28;45461;-66
2022/03/27 07:28:08;;;;;;;;;24.25;24.25;;;;;14.52;41.84;101966.38;5025731;28;45570;-64
2022/03/27 07:30:35;;;;;;;;;26.67;25.67;;;;;14.42;41.90;101964.91;5032117;28;45503;-64
2022/03/27 07:33:00;;;;;;;;;35.67;30.00;;;;;14.42;41.76;101964.91;5037097;28;45419;-65
2022/03/27 07:35:26;;;;;;;;;30.00;27.67;;;;;14.40;41.71;101958.78;5037652;28;45339;-65
2022/03/27 07:37:53;;;;;;;;;30.00;27.67;;;;;14.46;41.93;101967.41;5029474;28;45482;-65
2022/03/27 07:40:20;;;;;;;;;34.00;27.67;;;;;14.49;42.05;101966.47;5023130;28;46157;-66
2022/03/27 07:42:49;;;;;;;;;30.33;27.00;;;;;14.44;41.39;101958.66;5024560;28;45503;-65
2022/03/27 07:45:15;;;;;;;;;27.33;26.00;;;;;14.53;41.82;101968.13;5034418;28;45608;-65
2022/03/27 07:47:40;;;;;;;;;28.33;27.33;;;;;14.55;41.62;101968.94;5022240;28;45482;-67
2022/03/27 07:50:08;;;;;;;;;29.00;27.33;;;;;14.59;41.60;101975.91;5017706;28;45787;-65
2022/03/27 07:52:34;;;;;;;;;27.67;25.67;;;;;14.62;41.77;101973.16;5017623;28;45459;-64
2022/03/27 07:55:00;;;;;;;;;27.00;25.00;;;;;14.66;42.00;101973.94;5025056;28;45418;-68
2022/03/27 07:57:26;;;;;;;;;73.25;58.75;;;;;14.63;41.07;101963.44;5037446;28;45588;-65
2022/03/27 07:59:52;;;;;;;;;46.25;38.00;;;;;14.70;41.64;101975.59;5037464;28;45855;-67
2022/03/27 08:02:18;;;;;;;;;53.50;42.25;;;;;14.71;41.15;101978.16;5031114;28;45604;-66
2022/03/27 08:04:44;;;;;;;;;26.67;26.67;;;;;14.76;40.91;101976.25;5026963;28;45566;-67
2022/03/27 08:07:10;;;;;;;;;29.33;26.67;;;;;14.76;41.49;101980.69;5022929;28;45471;-68
2022/03/27 08:09:35;;;;;;;;;35.25;32.00;;;;;14.79;41.04;101989.38;5020277;28;45532;-69
2022/03/27 08:12:01;;;;;;;;;33.25;30.75;;;;;14.78;41.56;101965.63;5018245;28;45505;-63
2022/03/27 08:14:31;;;;;;;;;26.00;24.67;;;;;14.82;41.14;101980.47;5019744;28;45728;-64
2022/03/27 08:16:57;;;;;;;;;30.67;29.67;;;;;14.88;40.80;101980.28;5019084;28;45743;-65
2022/03/27 08:19:22;;;;;;;;;27.33;27.33;;;;;14.90;41.15;101977.59;5030585;28;46117;-64
2022/03/27 08:21:47;;;;;;;;;31.33;27.00;;;;;14.94;41.10;101980.13;5035373;28;45548;-62
2022/03/27 08:24:13;;;;;;;;;29.33;26.67;;;;;14.94;40.63;101966.00;5017215;28;45403;-65
2022/03/27 08:26:56;;;;;;;;;31.33;29.33;;;;;15.03;40.89;101981.59;5018395;28;45442;-63
2022/03/27 08:29:24;;;;;;;;;30.33;25.67;;;;;15.06;40.46;101984.16;5023429;28;45820;-64
2022/03/27 08:31:50;;;;;;;;;29.33;28.00;;;;;15.09;40.35;101983.19;5023155;28;45532;-63
2022/03/27 08:34:17;;;;;;;;;29.33;28.33;;;;;15.11;40.07;101973.41;5016998;28;45495;-65
2022/03/27 08:36:43;;;;;;;;;28.00;26.33;;;;;15.13;40.22;101977.75;5028238;28;45446;-64
2022/03/27 08:39:09;;;;;;;;;34.33;30.67;;;;;15.16;40.61;101976.78;5035921;28;45432;-63
2022/03/27 08:41:34;;;;;;;;;29.00;25.00;;;;;15.11;40.49;101965.47;5025450;28;45638;-64
2022/03/27 08:44:00;;;;;;;;;31.33;28.33;;;;;15.17;40.05;101979.38;5020570;28;45466;-65
2022/03/27 08:46:28;;;;;;;;;25.33;23.67;;;;;15.19;40.70;101974.88;5028595;28;45529;-65
2022/03/27 08:48:54;;;;;;;;;27.33;25.33;;;;;15.21;40.62;101975.72;5036478;28;45621;-64
2022/03/27 08:51:32;;;;;;;;;26.67;25.33;;;;;15.20;40.11;101968.66;5036915;28;45391;-66
2022/03/27 08:54:02;;;;;;;;;28.67;26.67;;;;;15.25;40.15;101971.16;5033185;28;45466;-65
2022/03/27 08:56:29;;;;;;;;;30.00;26.00;;;;;15.30;39.67;101982.50;5027943;28;45354;-63
2022/03/27 08:58:58;;;;;;;;;37.33;33.00;;;;;15.33;39.85;101984.16;5035621;28;46719;-65
2022/03/27 09:01:24;;;;;;;;;26.33;25.00;;;;;15.32;39.74;101985.97;5033178;28;45316;-64
2022/03/27 09:03:49;;;;;;;;;28.67;26.00;;;;;15.34;40.07;101978.84;5036685;28;45460;-64
2022/03/27 09:06:15;;;;;;;;;24.33;23.33;;;;;15.36;40.29;101986.72;5035085;28;45668;-64
2022/03/27 09:08:41;;;;;;;;;29.33;27.00;;;;;15.34;39.58;101980.59;5033644;28;47480;-63
2022/03/27 09:11:15;;;;;;;;;27.33;26.67;;;;;15.40;39.87;101991.88;5021538;28;45536;-63
2022/03/27 09:13:45;;;;;;;;;29.67;24.67;;;;;15.42;39.86;101986.50;5034772;28;45390;-67
2022/03/27 09:16:10;;;;;;;;;33.33;26.33;;;;;15.46;39.45;101996.09;5029060;28;45524;-67
2022/03/27 09:18:54;;;;;;;;;30.33;30.33;;;;;15.50;39.66;101989.78;5025796;28;45632;-66
2022/03/27 09:21:22;;;;;;;;;29.00;28.67;;;;;15.53;38.87;101984.38;5038698;28;45474;-68
2022/03/27 09:24:06;;;;;;;;;38.33;31.33;;;;;15.54;39.85;101991.41;5023333;28;45553;-70
2022/03/27 09:26:32;;;;;;;;;27.00;25.00;;;;;15.55;39.79;101985.16;5030187;28;45600;-68
2022/03/27 09:29:10;;;;;;;;;21.33;21.33;;;;;15.59;40.48;101988.59;5033622;28;46167;-69
2022/03/27 09:31:35;;;;;;;;;28.00;26.00;;;;;15.64;39.42;101986.66;5027779;28;45428;-68
2022/03/27 09:34:02;;;;;;;;;33.33;31.00;;;;;15.64;39.41;101986.66;5027842;28;45489;-66
2022/03/27 09:36:29;;;;;;;;;31.67;28.67;;;;;15.70;38.66;101990.94;5033322;28;45539;-65
2022/03/27 09:39:01;;;;;;;;;30.00;26.67;;;;;15.72;39.04;101992.59;5030310;28;46959;-66
2022/03/27 09:41:35;;;;;;;;;28.33;24.33;;;;;15.75;39.13;101992.50;5017296;28;45577;-66
2022/03/27 09:44:05;;;;;;;;;34.67;29.33;;;;;15.77;39.13;101988.00;5023908;28;45550;-67
2022/03/27 09:46:50;;;;;;;;;23.67;23.67;;;;;15.81;38.86;101983.47;5036193;28;45492;-69
2022/03/27 09:49:20;;;;;;;;;33.33;28.00;;;;;15.85;38.75;101995.69;5023220;28;45501;-67
2022/03/27 09:52:05;;;;;;;;;30.33;26.67;;;;;15.87;38.66;101981.44;5030058;28;45622;-67
2022/03/27 09:55:00;;;;;;;;;31.33;27.33;;;;;15.89;38.83;101984.06;5023005;28;45448;-67
2022/03/27 09:57:33;;;;;;;;;28.33;26.33;;;;;15.95;38.80;101982.97;5019877;28;45469;-68
2022/03/27 10:00:14;;;;;;;;;34.33;31.00;;;;;15.98;38.89;101983.72;5017399;28;45522;-69
2022/03/27 10:02:41;;;;;;;;;25.33;24.67;;;;;16.01;38.93;101986.28;5034394;28;45552;-67
2022/03/27 10:05:11;;;;;;;;;26.67;26.00;;;;;16.05;38.45;101971.09;5025490;28;45536;-67
2022/03/27 10:07:41;;;;;;;;;26.67;24.00;;;;;16.09;38.64;101984.22;5029999;28;45553;-68
2022/03/27 10:10:15;;;;;;;;;28.33;26.67;;;;;16.10;38.32;101980.63;5016633;28;45522;-66
2022/03/27 10:12:42;;;;;;;;;28.33;28.33;;;;;16.17;38.61;101981.25;5021895;28;45383;-66
2022/03/27 10:15:12;;;;;;;;;34.33;29.67;;;;;16.21;37.85;101974.06;5022784;28;45732;-67
2022/03/27 10:17:39;;;;;;;;;31.67;28.33;;;;;16.21;38.73;101963.44;5024542;28;45585;-65
2022/03/27 10:20:17;;;;;;;;;31.67;27.33;;;;;16.24;38.18;101971.28;5022434;28;46547;-68
2022/03/27 10:22:44;;;;;;;;;34.67;31.00;;;;;16.29;38.21;101964.88;5026693;28;45438;-69
2022/03/27 10:25:13;;;;;;;;;26.67;26.00;;;;;16.44;38.52;101968.78;5028434;28;45564;-65
2022/03/27 10:27:40;;;;;;;;;27.67;25.00;;;;;16.65;37.45;101968.84;5015472;28;45530;-61
2022/03/27 10:30:07;;;;;;;;;29.33;28.33;;;;;16.85;37.22;101957.50;5015234;28;46005;-68
2022/03/27 10:32:34;;;;;;;;;28.00;24.33;;;;;17.07;36.71;101946.84;5016593;28;45556;-68
2022/03/27 10:35:06;;;;;;;;;31.33;24.00;;;;;17.36;36.32;101954.47;5018099;28;45520;-63
2022/03/27 10:37:49;;;;;;;;;31.67;28.67;;;;;17.50;36.27;101950.38;5034326;28;45394;-63
2022/03/27 10:40:28;;;;;;;;;32.33;30.00;;;;;17.51;36.19;101944.13;5022242;28;46149;-65
2022/03/27 10:43:18;;;;;;;;;33.00;31.33;;;;;17.44;35.79;101946.19;5019913;28;45567;-68
2022/03/27 10:45:44;;;;;;;;;28.00;25.00;;;;;17.36;36.19;101943.00;5030509;28;45559;-67
2022/03/27 10:48:18;;;;;;;;;29.67;24.00;;;;;17.32;36.43;101939.56;5016503;28;45697;-61
2022/03/27 10:51:02;;;;;;;;;32.00;28.33;;;;;17.29;36.95;101938.84;5027024;28;45512;-69
2022/03/27 10:53:27;;;;;;;;;30.33;29.67;;;;;17.17;36.75;101917.16;5021249;28;45597;-64
2022/03/27 10:55:54;;;;;;;;;30.00;30.00;;;;;17.19;36.25;101925.06;5022910;28;45639;-65
2022/03/27 10:58:40;;;;;;;;;31.67;27.67;;;;;17.18;36.78;101921.53;5021133;28;46104;-63
2022/03/27 11:01:30;;;;;;;;;28.00;24.33;;;;;17.20;37.25;101925.00;5032456;28;45559;-62
2022/03/27 11:04:10;;;;;;;;;30.00;27.33;;;;;17.16;37.79;101914.56;5032033;28;45455;-64
2022/03/27 11:06:44;;;;;;;;;32.00;29.67;;;;;17.21;36.55;101917.91;5038675;28;45461;-63
2022/03/27 11:09:30;;;;;;;;;33.00;32.00;;;;;17.22;36.96;101914.28;5035437;28;45380;-63
2022/03/27 11:11:57;;;;;;;;;35.33;30.33;;;;;17.23;36.84;101913.38;5035820;28;45558;-63
2022/03/27 11:14:51;;;;;;;;;36.67;28.00;;;;;17.22;36.70;101911.63;5034170;28;45418;-63
2022/03/27 11:17:28;;;;;;;;;30.67;28.00;;;;;17.25;37.23;101914.19;5038320;28;45452;-62